createdAt,value
2023-07-19T00:04:11.381Z,100512.44
2023-07-19T00:09:14.985Z,100512.75
2023-07-19T00:14:18.545Z,100516.56
2023-07-19T00:19:21.604Z,100519.16
2023-07-19T00:24:26.198Z,100520.00
2023-07-19T00:29:29.382Z,100506.38
2023-07-19T00:34:31.990Z,100514.47
2023-07-19T00:39:36.602Z,100507.78
2023-07-19T00:44:39.972Z,100483.75
2023-07-19T00:49:45.670Z,100492.28
2023-07-19T00:54:49.995Z,100487.28
2023-07-19T00:59:53.776Z,100489.59
2023-07-19T01:04:56.818Z,100477.88
2023-07-19T01:10:02.442Z,100486.69
2023-07-19T01:15:10.440Z,100478.38
2023-07-19T01:20:13.727Z,100487.47
2023-07-19T01:25:16.777Z,100478.25
2023-07-19T01:30:21.915Z,100474.44
2023-07-19T01:35:27.692Z,100483.56
2023-07-19T01:40:33.375Z,100465.47
2023-07-19T01:45:37.451Z,100467.09
2023-07-19T01:50:51.142Z,100484.25
2023-07-19T01:55:56.388Z,100457.38
2023-07-19T02:00:58.808Z,100471.28
2023-07-19T02:06:02.194Z,100469.69
2023-07-19T02:11:08.419Z,100474.97
2023-07-19T02:16:11.107Z,100449.50
2023-07-19T02:21:14.998Z,100465.59
2023-07-19T02:26:19.899Z,100470.22
2023-07-19T02:31:23.430Z,100469.47
2023-07-19T02:36:27.615Z,100449.97
2023-07-19T02:41:30.932Z,100462.75
2023-07-19T02:46:35.494Z,100459.75
2023-07-19T02:51:37.968Z,100476.69
2023-07-19T02:56:42.691Z,100472.81
2023-07-19T03:01:45.018Z,100492.56
2023-07-19T03:06:51.138Z,100466.22
2023-07-19T03:11:53.735Z,100481.25
2023-07-19T03:16:57.136Z,100474.34
2023-07-19T03:22:00.328Z,100471.25
2023-07-19T03:27:05.539Z,100480.66
2023-07-19T03:32:09.863Z,100492.38
2023-07-19T03:37:14.357Z,100473.94
2023-07-19T03:42:16.938Z,100489.94
2023-07-19T03:47:21.016Z,100490.00
2023-07-19T03:52:24.917Z,100479.88
2023-07-19T03:57:30.452Z,100474.00
2023-07-19T04:02:32.918Z,100469.38
2023-07-19T04:07:37.631Z,100473.84
2023-07-19T04:12:40.046Z,100472.31
2023-07-19T04:17:44.438Z,100472.28
2023-07-19T04:22:50.145Z,100475.03
2023-07-19T04:27:54.169Z,100459.25
2023-07-19T04:32:58.135Z,100464.84
2023-07-19T04:38:01.339Z,100441.84
2023-07-19T04:43:05.703Z,100464.63
2023-07-19T04:48:09.921Z,100462.50
2023-07-19T04:53:13.237Z,100437.13
2023-07-19T04:58:17.375Z,100443.56
2023-07-19T05:03:20.680Z,100457.78
2023-07-19T05:08:23.131Z,100448.66
2023-07-19T05:13:27.949Z,100436.91
2023-07-19T05:18:32.204Z,100439.00
2023-07-19T05:23:34.767Z,100430.69
2023-07-19T05:28:37.757Z,100439.59
2023-07-19T05:33:42.364Z,100420.38
2023-07-19T05:38:47.181Z,100434.97
2023-07-19T05:44:05.502Z,100430.53
2023-07-19T05:49:14.628Z,100426.69
2023-07-19T05:54:17.645Z,100427.69
2023-07-19T05:59:24.517Z,100436.88
2023-07-19T06:04:27.858Z,100441.44
2023-07-19T06:09:32.017Z,100443.94
2023-07-19T06:14:35.910Z,100465.16
2023-07-19T06:19:42.229Z,100461.59
2023-07-19T06:24:44.574Z,100480.25
2023-07-19T06:29:50.320Z,100454.59
2023-07-19T06:34:52.700Z,100486.13
2023-07-19T06:39:55.472Z,100478.59
2023-07-19T06:45:00.565Z,100481.53
2023-07-19T06:50:03.670Z,100431.09
2023-07-19T06:55:11.253Z,100472.19
2023-07-19T07:00:13.931Z,100482.81
2023-07-19T07:05:18.517Z,100485.59
2023-07-19T07:10:22.344Z,100481.75
2023-07-19T07:15:25.564Z,100492.38
2023-07-19T07:20:28.521Z,100469.91
2023-07-19T07:25:31.997Z,100476.34
2023-07-19T07:30:39.206Z,100455.38
2023-07-19T07:35:44.504Z,100460.25
2023-07-19T07:40:47.449Z,100467.28
2023-07-19T07:45:51.234Z,100431.41
2023-07-19T07:50:55.937Z,100445.22
2023-07-19T07:56:00.966Z,100463.38
2023-07-19T08:01:05.147Z,100467.09
2023-07-19T08:11:26.635Z,100461.63
2023-07-19T08:16:33.418Z,100466.16
2023-07-19T08:21:37.664Z,100471.72
2023-07-19T08:26:47.121Z,100462.97
2023-07-19T08:31:50.395Z,100449.91
2023-07-19T08:36:59.011Z,100469.63
2023-07-19T08:42:04.343Z,100473.84
2023-07-19T08:47:16.303Z,100466.19
2023-07-19T08:52:23.754Z,100446.16
2023-07-19T08:57:29.961Z,100457.69
2023-07-19T09:02:50.528Z,100442.16
2023-07-19T09:08:03.242Z,100453.16
2023-07-19T09:13:09.034Z,100429.00
2023-07-19T09:18:12.369Z,100410.63
2023-07-19T09:23:21.474Z,100391.78
2023-07-19T09:28:27.620Z,100422.44
2023-07-19T09:33:32.347Z,100427.91
2023-07-19T09:38:36.651Z,100418.66
2023-07-19T09:43:42.440Z,100419.34
2023-07-19T09:48:46.202Z,100403.09
2023-07-19T09:53:51.626Z,100390.75
2023-07-19T09:58:56.819Z,100394.50
2023-07-19T10:04:00.125Z,100404.44
2023-07-19T10:09:44.983Z,100387.84
2023-07-19T10:15:04.966Z,100405.84
2023-07-19T10:20:16.208Z,100385.66
2023-07-19T10:25:27.354Z,100386.94
2023-07-19T10:31:00.348Z,100387.78
2023-07-19T10:36:12.700Z,100372.97
2023-07-19T10:41:21.986Z,100384.78
2023-07-19T10:46:26.226Z,100385.41
2023-07-19T10:51:31.651Z,100382.66
2023-07-19T10:56:34.883Z,100347.63
2023-07-19T11:01:38.492Z,100370.31
2023-07-19T11:06:56.693Z,100363.25
2023-07-19T11:12:00.343Z,100365.19
2023-07-19T11:17:05.369Z,100346.94
2023-07-19T11:22:16.184Z,100360.88
2023-07-19T11:27:21.379Z,100350.75
2023-07-19T11:32:24.825Z,100348.53
2023-07-19T11:37:31.776Z,100354.06
2023-07-19T11:42:50.875Z,100298.53
2023-07-19T11:48:21.903Z,100333.78
2023-07-19T11:53:28.778Z,100332.91
2023-07-19T12:04:04.234Z,100339.59
2023-07-19T12:09:10.713Z,100314.50
2023-07-19T12:14:14.721Z,100318.88
2023-07-19T12:19:20.244Z,100322.31
2023-07-19T12:24:24.176Z,100312.91
2023-07-19T12:29:27.182Z,100318.44
2023-07-19T12:34:32.881Z,100330.81
2023-07-19T12:39:43.317Z,100311.88
2023-07-19T12:44:47.323Z,100312.81
2023-07-19T12:49:50.938Z,100300.16
2023-07-19T12:54:54.119Z,100313.53
2023-07-19T13:00:03.579Z,100327.78
2023-07-19T13:05:07.792Z,100327.47
2023-07-19T13:10:15.424Z,100324.56
2023-07-19T13:15:20.899Z,100335.38
2023-07-19T13:20:24.996Z,100318.75
2023-07-19T13:25:29.538Z,100345.00
2023-07-19T13:30:32.706Z,100327.19
2023-07-19T13:40:45.118Z,100289.44
2023-07-19T13:45:47.614Z,100339.25
2023-07-19T13:50:50.826Z,100348.44
2023-07-19T13:55:53.187Z,100355.00
2023-07-19T14:00:57.298Z,100331.16
2023-07-19T14:06:00.171Z,100358.72
2023-07-19T14:11:06.402Z,100357.53
2023-07-19T14:16:10.396Z,100354.06
2023-07-19T14:21:13.546Z,100354.53
2023-07-19T14:26:19.621Z,100346.31
2023-07-19T14:31:23.221Z,100360.28
2023-07-19T14:36:28.828Z,100361.41
2023-07-19T14:41:32.241Z,100342.84
2023-07-19T14:46:37.113Z,100349.69
2023-07-19T14:51:41.089Z,100365.00
2023-07-19T14:56:44.517Z,100381.59
2023-07-19T15:01:47.268Z,100387.84
2023-07-19T15:06:52.619Z,100357.88
2023-07-19T15:11:57.315Z,100387.97
2023-07-19T15:17:01.556Z,100383.78
2023-07-19T15:22:05.976Z,100392.75
2023-07-19T15:27:11.579Z,100395.13
2023-07-19T15:32:13.998Z,100418.75
2023-07-19T15:37:17.246Z,100415.34
2023-07-19T15:42:20.434Z,100421.47
2023-07-19T15:47:26.351Z,100433.03
2023-07-19T15:52:28.954Z,100416.72
2023-07-19T15:57:32.318Z,100443.97
2023-07-19T16:02:37.538Z,100425.72
2023-07-19T16:07:41.127Z,100448.97
2023-07-19T16:12:45.466Z,100448.47
2023-07-19T16:17:50.554Z,100423.03
2023-07-19T16:22:54.706Z,100441.13
2023-07-19T16:27:58.848Z,100447.91
2023-07-19T16:33:04.791Z,100459.16
2023-07-19T16:38:12.006Z,100467.69
2023-07-19T16:43:15.278Z,100455.50
2023-07-19T16:48:23.242Z,100481.06
2023-07-19T16:53:25.649Z,100463.41
2023-07-19T16:58:30.116Z,100479.41
2023-07-19T17:03:34.870Z,100476.41
2023-07-19T17:08:37.555Z,100446.13
2023-07-19T17:13:47.229Z,100503.94
2023-07-19T17:18:58.822Z,100502.38
2023-07-19T17:24:09.239Z,100510.50
2023-07-19T17:29:11.684Z,100511.78
2023-07-19T17:34:16.774Z,100529.03
2023-07-19T17:39:20.261Z,100501.41
2023-07-19T17:44:23.965Z,100527.28
2023-07-19T17:49:27.942Z,100539.88
2023-07-19T17:54:32.324Z,100548.19
2023-07-19T17:59:34.788Z,100530.56
2023-07-19T18:04:37.686Z,100553.75
2023-07-19T18:09:43.789Z,100556.13
2023-07-19T18:14:47.318Z,100563.28
2023-07-19T18:19:52.587Z,100529.38
2023-07-19T18:24:55.151Z,100556.69
2023-07-19T18:29:58.769Z,100492.88
2023-07-19T18:35:01.990Z,100555.03
2023-07-19T18:40:07.134Z,100531.22
2023-07-19T18:45:11.083Z,100555.28
2023-07-19T18:50:13.676Z,100545.13
2023-07-19T18:55:18.891Z,100547.78
2023-07-19T19:00:22.346Z,100568.63
2023-07-19T19:05:26.326Z,100526.72
2023-07-19T19:10:33.346Z,100540.94
2023-07-19T19:15:36.794Z,100547.81
2023-07-19T19:20:44.888Z,100573.34
2023-07-19T19:25:48.436Z,100574.00
2023-07-19T19:30:52.417Z,100600.13
2023-07-19T19:35:57.487Z,100584.06
2023-07-19T19:41:01.313Z,100604.78
2023-07-19T19:46:04.889Z,100597.03
2023-07-19T19:51:08.827Z,100611.44
2023-07-19T20:01:20.377Z,100630.50
2023-07-19T20:06:23.016Z,100600.78
2023-07-19T20:11:26.919Z,100642.44
2023-07-19T20:16:40.314Z,100616.88
2023-07-19T20:21:43.301Z,100636.09
2023-07-19T20:26:46.210Z,100646.41
2023-07-19T20:37:31.191Z,100640.66
2023-07-19T20:42:21.151Z,100635.75
2023-07-19T20:47:24.231Z,100669.59
2023-07-19T20:52:27.128Z,100676.38
2023-07-19T20:57:29.547Z,100682.66
2023-07-19T21:02:32.943Z,100670.44
2023-07-19T21:07:36.832Z,100668.44
2023-07-19T21:12:39.342Z,100650.56
2023-07-19T21:17:44.795Z,100611.63
2023-07-19T21:22:47.932Z,100677.50
2023-07-19T21:27:51.388Z,100652.47
2023-07-19T21:32:53.854Z,100652.53
2023-07-19T21:37:57.210Z,100676.19
2023-07-19T21:43:01.186Z,100667.06
2023-07-19T21:48:03.957Z,100646.38
2023-07-19T21:53:06.464Z,100663.91
2023-07-19T21:58:09.258Z,100651.19
2023-07-19T22:03:14.571Z,100662.75
2023-07-19T22:08:19.485Z,100678.34
2023-07-19T22:13:23.277Z,100673.25
2023-07-19T22:18:28.419Z,100690.25
2023-07-19T22:23:32.676Z,100667.06
2023-07-19T22:28:37.683Z,100690.69
2023-07-19T22:33:41.205Z,100680.63
2023-07-19T22:38:44.113Z,100651.59
2023-07-19T22:43:47.492Z,100703.59
2023-07-19T22:48:52.457Z,100724.94
2023-07-19T22:53:54.870Z,100689.34
2023-07-19T22:58:57.809Z,100698.97
2023-07-19T23:04:10.787Z,100684.88
2023-07-19T23:09:14.480Z,100691.41
2023-07-19T23:14:17.723Z,100670.09
2023-07-19T23:19:20.282Z,100697.50
2023-07-19T23:24:22.641Z,100659.03
2023-07-19T23:29:26.058Z,100684.34
2023-07-19T23:34:29.727Z,100670.28
2023-07-19T23:39:32.472Z,100704.38
2023-07-19T23:44:36.141Z,100721.09
2023-07-19T23:49:40.781Z,100732.59
2023-07-19T23:54:44.013Z,100705.56
2023-07-19T23:59:47.210Z,100703.75
